IGO492E VIDP-VOMM
Flight info
| Callsign | IGO492E |
|---|---|
| Flight time | N/A |
| Altitude | 35000 |
| Route | AKRIB7G AKRIB Z16 BULDI Q23 RINTO RINTO2E |
| Aircraft | A21N/M-SDE2E3FGHIRWXY/LB1 |
Departure
| Time | 2026-05-07 10:41 |
|---|---|
| Airport | Indira Gandhi International Airport (VIDP) |
Arrival
| Time | N/A |
|---|---|
| Airport | Chennai International Airport (VOMM) |
| Time | Latitude | Longitude | Altitude | Speed | Heading |
|---|---|---|---|---|---|
| 2026-05-07 10:19 | 28.56513 | 77.10777 | 756 ft | 0 kts | 103° |
| 2026-05-07 10:28 | 28.56516 | 77.10763 | 750 ft | 4 kts | 103° |
| 2026-05-07 10:28 | 28.56520 | 77.10738 | 751 ft | 4 kts | 79° |
| 2026-05-07 10:29 | 28.56508 | 77.10718 | 752 ft | 4 kts | 22° |
| 2026-05-07 10:29 | 28.56490 | 77.10712 | 752 ft | 1 kts | 13° |
| 2026-05-07 10:29 | 28.56487 | 77.10711 | 752 ft | 0 kts | 13° |
| 2026-05-07 10:32 | 28.56490 | 77.10712 | 752 ft | 2 kts | 13° |
| 2026-05-07 10:32 | 28.56511 | 77.10717 | 753 ft | 4 kts | 16° |
| 2026-05-07 10:33 | 28.56550 | 77.10729 | 754 ft | 7 kts | 13° |
| 2026-05-07 10:33 | 28.56609 | 77.10745 | 755 ft | 10 kts | 13° |
| 2026-05-07 10:33 | 28.56715 | 77.10774 | 754 ft | 13 kts | 13° |
| 2026-05-07 10:33 | 28.56776 | 77.10790 | 754 ft | 14 kts | 14° |
| 2026-05-07 10:34 | 28.56859 | 77.10768 | 755 ft | 12 kts | 284° |
| 2026-05-07 10:34 | 28.56862 | 77.10677 | 755 ft | 12 kts | 270° |
| 2026-05-07 10:34 | 28.56864 | 77.10574 | 755 ft | 14 kts | 271° |
| 2026-05-07 10:34 | 28.56867 | 77.10453 | 754 ft | 16 kts | 271° |
| 2026-05-07 10:35 | 28.56869 | 77.10314 | 755 ft | 19 kts | 271° |
| 2026-05-07 10:35 | 28.56873 | 77.10161 | 755 ft | 20 kts | 271° |
| 2026-05-07 10:35 | 28.56877 | 77.10002 | 755 ft | 21 kts | 271° |
| 2026-05-07 10:35 | 28.56880 | 77.09833 | 756 ft | 22 kts | 271° |
| 2026-05-07 10:36 | 28.56884 | 77.09660 | 752 ft | 22 kts | 271° |
| 2026-05-07 10:36 | 28.56886 | 77.09483 | 756 ft | 23 kts | 271° |
| 2026-05-07 10:36 | 28.56892 | 77.09296 | 756 ft | 24 kts | 271° |
| 2026-05-07 10:36 | 28.56898 | 77.09109 | 756 ft | 13 kts | 270° |
| 2026-05-07 10:37 | 28.56895 | 77.09036 | 755 ft | 0 kts | 269° |
| 2026-05-07 10:37 | 28.56896 | 77.09029 | 755 ft | 2 kts | 276° |
| 2026-05-07 10:37 | 28.56901 | 77.09002 | 753 ft | 5 kts | 293° |
| 2026-05-07 10:38 | 28.56935 | 77.08975 | 755 ft | 1 kts | 347° |
| 2026-05-07 10:38 | 28.56939 | 77.08973 | 755 ft | 2 kts | 346° |
| 2026-05-07 10:39 | 28.56961 | 77.08968 | 754 ft | 5 kts | 347° |
| 2026-05-07 10:39 | 28.57003 | 77.08957 | 751 ft | 8 kts | 347° |
| 2026-05-07 10:39 | 28.57047 | 77.08973 | 755 ft | 7 kts | 74° |
| 2026-05-07 10:39 | 28.57051 | 77.09020 | 756 ft | 5 kts | 91° |
| 2026-05-07 10:40 | 28.57050 | 77.09025 | 756 ft | 4 kts | 91° |
| 2026-05-07 10:40 | 28.57046 | 77.09264 | 755 ft | 68 kts | 89° |
| 2026-05-07 10:40 | 28.57030 | 77.10052 | 755 ft | 131 kts | 92° |
| 2026-05-07 10:40 | 28.57005 | 77.11229 | 962 ft | 158 kts | 93° |
| 2026-05-07 10:41 | 28.56969 | 77.12560 | 1460 ft | 176 kts | 97° |
| 2026-05-07 10:41 | 28.56892 | 77.14020 | 1850 ft | 195 kts | 95° |
| 2026-05-07 10:41 | 28.56844 | 77.15654 | 2154 ft | 219 kts | 94° |
| 2026-05-07 10:41 | 28.56801 | 77.17488 | 2486 ft | 243 kts | 93° |
| 2026-05-07 10:42 | 28.56756 | 77.19436 | 3018 ft | 254 kts | 93° |
| 2026-05-07 10:42 | 28.56712 | 77.21465 | 3692 ft | 260 kts | 94° |
| 2026-05-07 10:42 | 28.56664 | 77.23567 | 4411 ft | 265 kts | 93° |
| 2026-05-07 10:42 | 28.56619 | 77.25647 | 5134 ft | 269 kts | 93° |
| 2026-05-07 10:43 | 28.56569 | 77.27797 | 5810 ft | 275 kts | 92° |
| 2026-05-07 10:43 | 28.56517 | 77.29996 | 6483 ft | 281 kts | 92° |
| 2026-05-07 10:43 | 28.56463 | 77.32271 | 7124 ft | 288 kts | 91° |
| 2026-05-07 10:43 | 28.56409 | 77.34581 | 7733 ft | 296 kts | 91° |
| 2026-05-07 10:44 | 28.56355 | 77.36900 | 8436 ft | 299 kts | 91° |
| 2026-05-07 10:44 | 28.55956 | 77.39230 | 9107 ft | 305 kts | 114° |
| 2026-05-07 10:44 | 28.54724 | 77.41188 | 9722 ft | 309 kts | 141° |
| 2026-05-07 10:44 | 28.52850 | 77.42408 | 10291 ft | 309 kts | 167° |
| 2026-05-07 10:45 | 28.50763 | 77.42655 | 10884 ft | 306 kts | 191° |
| 2026-05-07 10:45 | 28.48767 | 77.41949 | 11501 ft | 300 kts | 214° |
| 2026-05-07 10:45 | 28.47086 | 77.40566 | 12152 ft | 299 kts | 224° |
| 2026-05-07 10:45 | 28.45475 | 77.39033 | 12827 ft | 303 kts | 225° |
| 2026-05-07 10:46 | 28.43837 | 77.37490 | 13480 ft | 309 kts | 225° |
| 2026-05-07 10:46 | 28.42133 | 77.35848 | 13797 ft | 324 kts | 227° |
| 2026-05-07 10:46 | 28.40334 | 77.34221 | 14027 ft | 348 kts | 213° |
| 2026-05-07 10:46 | 28.38078 | 77.33045 | 14458 ft | 360 kts | 207° |
| 2026-05-07 10:47 | 28.35755 | 77.31959 | 15035 ft | 364 kts | 207° |
| 2026-05-07 10:47 | 28.33446 | 77.30844 | 15635 ft | 367 kts | 208° |
| 2026-05-07 10:47 | 28.31131 | 77.29611 | 16264 ft | 369 kts | 210° |
| 2026-05-07 10:47 | 28.28787 | 77.28313 | 16893 ft | 372 kts | 210° |
| 2026-05-07 10:48 | 28.26456 | 77.27010 | 17507 ft | 375 kts | 210° |
| 2026-05-07 10:48 | 28.24105 | 77.25694 | 18119 ft | 378 kts | 210° |
| 2026-05-07 10:48 | 28.21771 | 77.24386 | 18633 ft | 381 kts | 210° |
| 2026-05-07 10:48 | 28.19383 | 77.23047 | 19132 ft | 385 kts | 210° |
| 2026-05-07 10:49 | 28.16976 | 77.21701 | 19618 ft | 388 kts | 210° |
| 2026-05-07 10:49 | 28.14546 | 77.20344 | 20105 ft | 392 kts | 211° |
| 2026-05-07 10:49 | 28.12090 | 77.18970 | 20608 ft | 395 kts | 211° |
| 2026-05-07 10:49 | 28.09613 | 77.17584 | 21109 ft | 398 kts | 211° |
| 2026-05-07 10:50 | 28.07119 | 77.16191 | 21595 ft | 402 kts | 211° |
| 2026-05-07 10:50 | 28.04603 | 77.14785 | 22087 ft | 405 kts | 211° |
| 2026-05-07 10:50 | 28.02069 | 77.13371 | 22614 ft | 407 kts | 211° |
| 2026-05-07 10:50 | 27.99518 | 77.11946 | 23115 ft | 410 kts | 211° |
| 2026-05-07 10:51 | 27.96955 | 77.10517 | 23556 ft | 413 kts | 211° |
| 2026-05-07 10:51 | 27.94364 | 77.09072 | 23954 ft | 416 kts | 211° |
| 2026-05-07 10:51 | 27.91755 | 77.07620 | 24347 ft | 419 kts | 211° |
| 2026-05-07 10:51 | 27.89131 | 77.06163 | 24736 ft | 421 kts | 211° |
| 2026-05-07 10:52 | 27.86466 | 77.04681 | 25120 ft | 424 kts | 211° |
| 2026-05-07 10:52 | 27.83809 | 77.03203 | 25497 ft | 426 kts | 211° |
| 2026-05-07 10:52 | 27.81144 | 77.01726 | 25861 ft | 429 kts | 211° |
| 2026-05-07 10:52 | 27.78462 | 77.00236 | 26216 ft | 431 kts | 211° |
| 2026-05-07 10:53 | 27.75761 | 76.98731 | 26565 ft | 434 kts | 212° |
| 2026-05-07 10:53 | 27.73045 | 76.97222 | 26914 ft | 436 kts | 211° |
| 2026-05-07 10:53 | 27.70315 | 76.95713 | 27240 ft | 438 kts | 211° |
| 2026-05-07 10:53 | 27.67607 | 76.94211 | 27578 ft | 440 kts | 212° |
| 2026-05-07 10:54 | 27.64853 | 76.92681 | 27889 ft | 443 kts | 212° |
| 2026-05-07 10:54 | 27.62080 | 76.91148 | 28209 ft | 445 kts | 211° |
| 2026-05-07 10:54 | 27.59234 | 76.89720 | 28502 ft | 453 kts | 203° |
| 2026-05-07 10:54 | 27.56113 | 76.89014 | 28775 ft | 465 kts | 188° |
| 2026-05-07 10:55 | 27.52862 | 76.89003 | 29074 ft | 470 kts | 182° |
| 2026-05-07 10:55 | 27.49574 | 76.89115 | 29358 ft | 473 kts | 182° |
| 2026-05-07 10:55 | 27.46288 | 76.89218 | 29641 ft | 475 kts | 183° |
| 2026-05-07 10:55 | 27.42971 | 76.89300 | 29925 ft | 476 kts | 183° |
| 2026-05-07 10:56 | 27.39658 | 76.89364 | 30174 ft | 478 kts | 184° |
| 2026-05-07 10:56 | 27.36321 | 76.89405 | 30419 ft | 480 kts | 184° |
| 2026-05-07 10:56 | 27.32979 | 76.89441 | 30664 ft | 481 kts | 184° |
| 2026-05-07 10:56 | 27.29622 | 76.89481 | 30902 ft | 483 kts | 184° |
| 2026-05-07 10:57 | 27.26253 | 76.89523 | 31137 ft | 485 kts | 184° |
| 2026-05-07 10:57 | 27.22827 | 76.89565 | 31372 ft | 486 kts | 184° |
| 2026-05-07 10:57 | 27.19441 | 76.89608 | 31609 ft | 488 kts | 184° |
| 2026-05-07 10:57 | 27.16080 | 76.89652 | 31811 ft | 490 kts | 184° |
| 2026-05-07 10:58 | 27.12629 | 76.89696 | 32081 ft | 488 kts | 184° |
| 2026-05-07 10:58 | 27.09244 | 76.89739 | 32425 ft | 486 kts | 184° |
| 2026-05-07 10:58 | 27.05910 | 76.89780 | 32727 ft | 485 kts | 184° |
| 2026-05-07 10:58 | 27.02540 | 76.89822 | 33006 ft | 484 kts | 184° |
| 2026-05-07 10:59 | 26.99135 | 76.89865 | 33268 ft | 483 kts | 184° |
| 2026-05-07 10:59 | 26.95822 | 76.89907 | 33509 ft | 482 kts | 184° |
| 2026-05-07 10:59 | 26.92464 | 76.89947 | 33753 ft | 482 kts | 184° |
| 2026-05-07 10:59 | 26.89125 | 76.89991 | 33958 ft | 481 kts | 184° |
| 2026-05-07 11:00 | 26.85778 | 76.90034 | 34104 ft | 481 kts | 184° |
| 2026-05-07 11:00 | 26.82427 | 76.90078 | 34242 ft | 481 kts | 184° |
| 2026-05-07 11:00 | 26.79076 | 76.90121 | 34379 ft | 482 kts | 184° |
| 2026-05-07 11:00 | 26.75723 | 76.90164 | 34517 ft | 482 kts | 184° |
| 2026-05-07 11:01 | 26.72377 | 76.90206 | 34667 ft | 482 kts | 184° |
| 2026-05-07 11:01 | 26.69028 | 76.90247 | 34813 ft | 481 kts | 184° |
| 2026-05-07 11:01 | 26.62330 | 76.90331 | 34865 ft | 480 kts | 184° |
| 2026-05-07 11:02 | 26.55658 | 76.90415 | 34836 ft | 480 kts | 184° |
| 2026-05-07 11:02 | 26.48946 | 76.90498 | 34832 ft | 483 kts | 184° |
| 2026-05-07 11:03 | 26.42222 | 76.90586 | 34831 ft | 483 kts | 185° |
| 2026-05-07 11:03 | 26.35501 | 76.90665 | 34822 ft | 483 kts | 185° |
| 2026-05-07 11:04 | 26.28776 | 76.90749 | 34824 ft | 483 kts | 184° |
| 2026-05-07 11:04 | 26.22034 | 76.90835 | 34804 ft | 487 kts | 185° |
| 2026-05-07 11:05 | 26.15244 | 76.90919 | 34811 ft | 487 kts | 185° |
| 2026-05-07 11:05 | 26.08455 | 76.91004 | 34810 ft | 486 kts | 185° |
| 2026-05-07 11:06 | 26.01673 | 76.91084 | 34805 ft | 487 kts | 185° |
| 2026-05-07 11:06 | 25.94891 | 76.91171 | 34787 ft | 486 kts | 186° |
| 2026-05-07 11:07 | 25.88159 | 76.91262 | 34799 ft | 485 kts | 186° |
| 2026-05-07 11:07 | 25.81429 | 76.91344 | 34801 ft | 484 kts | 186° |
| 2026-05-07 11:08 | 25.74687 | 76.91425 | 34804 ft | 484 kts | 186° |
| 2026-05-07 11:08 | 25.68002 | 76.91507 | 34804 ft | 484 kts | 186° |
| 2026-05-07 11:09 | 25.61260 | 76.91588 | 34792 ft | 484 kts | 186° |
| 2026-05-07 11:09 | 25.54530 | 76.91670 | 34803 ft | 484 kts | 186° |
| 2026-05-07 11:10 | 25.47811 | 76.91754 | 34804 ft | 485 kts | 186° |
| 2026-05-07 11:10 | 25.41094 | 76.91838 | 34802 ft | 483 kts | 186° |
| 2026-05-07 11:11 | 25.34379 | 76.91917 | 34765 ft | 483 kts | 186° |
| 2026-05-07 11:11 | 25.27616 | 76.91996 | 34790 ft | 486 kts | 186° |
| 2026-05-07 11:12 | 25.20875 | 76.92086 | 34798 ft | 487 kts | 186° |
| 2026-05-07 11:12 | 25.14131 | 76.92169 | 34799 ft | 485 kts | 186° |
| 2026-05-07 11:13 | 25.07380 | 76.92250 | 34797 ft | 484 kts | 186° |
| 2026-05-07 11:13 | 25.01716 | 76.92315 | 34783 ft | 487 kts | 186° |
| 2026-05-07 11:14 | 24.94963 | 76.92400 | 34793 ft | 487 kts | 186° |
| 2026-05-07 11:14 | 24.88208 | 76.92482 | 34780 ft | 486 kts | 186° |